Time;durP1;ratioP1;P1;durP2;ratioP2;P2;SDS_P1;SDS_P2;PMS_P1;PMS_P2;Temp;Humidity;BMP_temperature;BMP_pressure;BME280_temperature;BME280_humidity;BME280_pressure;Samples;Min_cycle;Max_cycle;Signal;HPM_P1;HPM_P2
2021/11/08 00:00:07;;;;;;;21.80;4.40;;;;;;;;;;5023147;28;20182;-70
2021/11/08 00:02:33;;;;;;;25.40;5.20;;;;;;;;;;5013114;28;20190;-71
2021/11/08 00:04:59;;;;;;;27.50;6.67;;;;;;;;;;5023817;28;20225;-71
2021/11/08 00:07:26;;;;;;;20.20;4.37;;;;;;;;;;5011532;28;20277;-71
2021/11/08 00:09:51;;;;;;;17.23;4.37;;;;;;;;;;5024036;28;20977;-71
2021/11/08 00:12:18;;;;;;;17.90;3.97;;;;;;;;;;5010369;28;20269;-71
2021/11/08 00:14:44;;;;;;;23.47;5.00;;;;;;;;;;5021304;28;20257;-71
2021/11/08 00:17:33;;;;;;;18.07;4.03;;;;;;;;;;5010403;28;20213;-71
2021/11/08 00:20:19;;;;;;;25.37;5.30;;;;;;;;;;5021485;28;20241;-71
2021/11/08 00:22:46;;;;;;;27.17;4.60;;;;;;;;;;5013266;28;20228;-71
2021/11/08 00:25:12;;;;;;;18.87;4.47;;;;;;;;;;5015725;28;20213;-71
2021/11/08 00:27:38;;;;;;;20.50;3.87;;;;;;;;;;5010606;28;20185;-70
2021/11/08 00:30:04;;;;;;;22.13;4.30;;;;;;;;;;5021635;28;20193;-71
2021/11/08 00:32:30;;;;;;;19.33;3.60;;;;;;;;;;5019232;28;20221;-71
2021/11/08 00:34:55;;;;;;;24.87;4.57;;;;;;;;;;5011090;28;20225;-71
2021/11/08 00:37:21;;;;;;;22.53;4.60;;;;;;;;;;5019124;28;20229;-71
2021/11/08 00:39:46;;;;;;;21.00;4.13;;;;;;;;;;5012635;28;20982;-71
2021/11/08 00:42:12;;;;;;;15.90;4.17;;;;;;;;;;5018464;28;20232;-72
2021/11/08 00:44:37;;;;;;;19.73;4.10;;;;;;;;;;5011281;28;20268;-71
2021/11/08 00:47:07;;;;;;;21.77;4.23;;;;;;;;;;5018995;28;20232;-71
2021/11/08 00:49:32;;;;;;;21.87;4.60;;;;;;;;;;5009011;28;20202;-71
2021/11/08 00:51:58;;;;;;;19.70;4.33;;;;;;;;;;5017961;28;20193;-71
2021/11/08 00:54:24;;;;;;;28.63;4.20;;;;;;;;;;5008388;28;20182;-72
2021/11/08 00:56:52;;;;;;;20.57;5.00;;;;;;;;;;5021329;28;20288;-72
2021/11/08 00:59:18;;;;;;;21.90;4.17;;;;;;;;;;5008957;28;20309;-71
2021/11/08 01:01:47;;;;;;;23.43;4.13;;;;;;;;;;5019561;28;20289;-71
2021/11/08 01:04:18;;;;;;;18.87;3.80;;;;;;;;;;5018217;28;20233;-71
2021/11/08 01:06:46;;;;;;;17.47;3.17;;;;;;;;;;5010388;28;20200;-71
2021/11/08 01:09:12;;;;;;;20.77;3.40;;;;;;;;;;5017448;28;20190;-71
2021/11/08 01:11:37;;;;;;;20.90;3.97;;;;;;;;;;5009482;28;20574;-71
2021/11/08 01:14:03;;;;;;;18.67;3.80;;;;;;;;;;5018810;28;20584;-71
2021/11/08 01:16:28;;;;;;;17.10;3.73;;;;;;;;;;5011094;28;20546;-72
2021/11/08 01:18:55;;;;;;;22.63;3.70;;;;;;;;;;5018230;28;20510;-71
2021/11/08 01:21:21;;;;;;;20.30;3.47;;;;;;;;;;5012107;28;20190;-71
2021/11/08 01:23:47;;;;;;;21.90;3.30;;;;;;;;;;5017601;28;20194;-71
2021/11/08 01:26:14;;;;;;;25.23;3.33;;;;;;;;;;5011743;28;20205;-71
2021/11/08 01:28:44;;;;;;;17.67;4.83;;;;;;;;;;5018108;28;20214;-71
2021/11/08 01:31:11;;;;;;;24.23;4.50;;;;;;;;;;5007283;28;20638;-71
2021/11/08 01:33:38;;;;;;;20.93;4.00;;;;;;;;;;5014145;28;20196;-71
2021/11/08 01:39:13;;;;;;;21.67;3.60;;;;;;;;;;5011477;28;20221;-71
2021/11/08 01:41:27;;;;;;;19.63;3.93;;;;;;;;;;5011538;28;20685;-71
2021/11/08 01:43:52;;;;;;;18.77;4.43;;;;;;;;;;5017768;28;20211;-71
2021/11/08 01:46:19;;;;;;;18.10;3.30;;;;;;;;;;5018889;28;20723;-71
2021/11/08 01:48:46;;;;;;;29.43;4.23;;;;;;;;;;5019214;28;20186;-71
2021/11/08 01:51:11;;;;;;;24.83;4.60;;;;;;;;;;5015110;28;20208;-71
2021/11/08 01:53:38;;;;;;;25.40;4.13;;;;;;;;;;5010791;28;20194;-71
2021/11/08 01:56:04;;;;;;;22.67;3.60;;;;;;;;;;5018224;28;20198;-71
2021/11/08 01:58:31;;;;;;;25.43;3.77;;;;;;;;;;5010388;28;20224;-71
2021/11/08 02:00:58;;;;;;;19.93;4.17;;;;;;;;;;5019083;28;20198;-71
2021/11/08 02:03:24;;;;;;;18.47;3.23;;;;;;;;;;5008326;28;20199;-71
2021/11/08 02:05:51;;;;;;;23.10;4.30;;;;;;;;;;5018080;28;20507;-71
2021/11/08 02:08:18;;;;;;;24.40;4.83;;;;;;;;;;5009440;28;20320;-71
2021/11/08 02:10:44;;;;;;;17.80;3.97;;;;;;;;;;5018451;28;20264;-71
2021/11/08 02:13:10;;;;;;;24.60;3.83;;;;;;;;;;5014259;28;20206;-71
2021/11/08 02:15:36;;;;;;;25.00;3.77;;;;;;;;;;5017911;28;20201;-71
2021/11/08 02:18:04;;;;;;;23.53;4.13;;;;;;;;;;5017593;28;20207;-71
2021/11/08 02:20:31;;;;;;;19.90;3.20;;;;;;;;;;5010010;28;20208;-71
2021/11/08 02:23:04;;;;;;;21.73;3.87;;;;;;;;;;5017875;28;20293;-71
2021/11/08 02:25:30;;;;;;;29.87;4.17;;;;;;;;;;5011848;28;20190;-71
2021/11/08 02:27:56;;;;;;;16.87;3.30;;;;;;;;;;5016831;28;20190;-71
2021/11/08 02:30:25;;;;;;;22.37;4.10;;;;;;;;;;5012560;28;20206;-71
2021/11/08 02:32:52;;;;;;;19.07;3.57;;;;;;;;;;5020031;28;20280;-71
2021/11/08 02:35:18;;;;;;;21.87;3.93;;;;;;;;;;5013132;28;20259;-71
2021/11/08 02:37:44;;;;;;;21.13;3.77;;;;;;;;;;5021781;28;20214;-71
2021/11/08 02:40:19;;;;;;;18.73;3.67;;;;;;;;;;5014972;28;20696;-71
2021/11/08 02:42:50;;;;;;;17.23;4.27;;;;;;;;;;5018192;28;20289;-71
2021/11/08 02:45:24;;;;;;;19.23;3.70;;;;;;;;;;5013242;28;20268;-71
2021/11/08 02:47:53;;;;;;;18.87;4.30;;;;;;;;;;5020965;28;20273;-71
2021/11/08 02:50:19;;;;;;;16.13;3.40;;;;;;;;;;5013525;28;20190;-71
2021/11/08 02:52:46;;;;;;;20.43;4.07;;;;;;;;;;5021836;28;20208;-71
2021/11/08 02:55:14;;;;;;;24.63;3.63;;;;;;;;;;5022231;28;20244;-71
2021/11/08 02:57:40;;;;;;;25.90;3.87;;;;;;;;;;5011720;28;20264;-71
2021/11/08 03:00:10;;;;;;;19.03;3.83;;;;;;;;;;5021674;28;20199;-71
2021/11/08 03:02:38;;;;;;;33.47;4.50;;;;;;;;;;5012619;28;20208;-71
2021/11/08 03:05:06;;;;;;;17.80;3.50;;;;;;;;;;5022926;28;20186;-71
2021/11/08 03:07:36;;;;;;;22.83;3.63;;;;;;;;;;5012848;28;20277;-71
2021/11/08 03:10:05;;;;;;;19.17;4.07;;;;;;;;;;5021222;28;20186;-71
2021/11/08 03:12:35;;;;;;;23.60;3.43;;;;;;;;;;5013228;28;20229;-73
2021/11/08 03:15:11;;;;;;;17.00;3.60;;;;;;;;;;5020909;28;20186;-71
2021/11/08 03:17:42;;;;;;;28.83;4.63;;;;;;;;;;5013494;28;20267;-71
2021/11/08 03:20:15;;;;;;;27.27;4.00;;;;;;;;;;5015566;28;20560;-71
2021/11/08 03:22:48;;;;;;;16.10;3.23;;;;;;;;;;5014111;28;20248;-71
2021/11/08 03:25:21;;;;;;;19.37;3.63;;;;;;;;;;5022149;28;20200;-71
2021/11/08 03:30:20;;;;;;;28.37;4.43;;;;;;;;;;5021267;28;20273;-71
2021/11/08 03:32:48;;;;;;;30.07;4.70;;;;;;;;;;5011665;28;20200;-71
2021/11/08 03:35:19;;;;;;;18.03;3.73;;;;;;;;;;5020810;28;20174;-71
2021/11/08 03:37:46;;;;;;;24.30;3.93;;;;;;;;;;5011595;28;20241;-71
2021/11/08 03:40:27;;;;;;;34.33;4.33;;;;;;;;;;5019546;28;20174;-71
2021/11/08 03:42:55;;;;;;;24.37;4.40;;;;;;;;;;5013152;28;20592;-71
2021/11/08 03:45:21;;;;;;;19.80;3.67;;;;;;;;;;5019399;28;20706;-71
2021/11/08 03:47:47;;;;;;;25.67;4.17;;;;;;;;;;5018246;28;20221;-71
2021/11/08 03:50:12;;;;;;;22.90;3.90;;;;;;;;;;5013832;28;20237;-71
2021/11/08 03:52:39;;;;;;;28.53;5.10;;;;;;;;;;5020602;28;20182;-71
2021/11/08 03:55:07;;;;;;;29.57;5.50;;;;;;;;;;5008526;28;20190;-71
2021/11/08 03:57:32;;;;;;;23.77;3.73;;;;;;;;;;5020404;28;20210;-71
2021/11/08 03:59:58;;;;;;;26.53;4.23;;;;;;;;;;5013848;28;20185;-71
2021/11/08 04:02:23;;;;;;;29.37;5.10;;;;;;;;;;5018330;28;20194;-71
2021/11/08 04:04:50;;;;;;;28.63;4.73;;;;;;;;;;5010625;28;20186;-71
2021/11/08 04:07:15;;;;;;;23.73;4.17;;;;;;;;;;5020941;28;20423;-71
2021/11/08 04:09:41;;;;;;;21.20;4.07;;;;;;;;;;5013935;28;20757;-71
2021/11/08 04:12:08;;;;;;;28.60;4.00;;;;;;;;;;5014485;28;20241;-71
2021/11/08 04:14:35;;;;;;;24.30;4.10;;;;;;;;;;5013115;28;20197;-71
2021/11/08 04:17:01;;;;;;;24.20;4.30;;;;;;;;;;5023064;28;20245;-71
2021/11/08 04:19:31;;;;;;;22.33;5.23;;;;;;;;;;5020860;28;20194;-71
2021/11/08 04:21:58;;;;;;;24.90;4.27;;;;;;;;;;5013258;28;20281;-71
2021/11/08 04:24:24;;;;;;;25.33;4.27;;;;;;;;;;5019288;28;20190;-71
2021/11/08 04:26:49;;;;;;;26.10;4.60;;;;;;;;;;5011539;28;20688;-71
2021/11/08 04:29:15;;;;;;;27.37;5.03;;;;;;;;;;5020003;28;20194;-71
2021/11/08 04:31:42;;;;;;;24.80;4.43;;;;;;;;;;5010099;28;20212;-71
2021/11/08 04:39:28;;;;;;;26.87;5.13;;;;;;;;;;5018718;28;20831;-71
2021/11/08 04:42:13;;;;;;;18.23;4.37;;;;;;;;;;5012816;28;20584;-71
2021/11/08 04:44:59;;;;;;;20.73;3.97;;;;;;;;;;5019206;28;20174;-71
2021/11/08 04:50:05;;;;;;;28.00;4.50;;;;;;;;;;5021202;28;20569;-71
2021/11/08 04:52:46;;;;;;;29.60;5.13;;;;;;;;;;5009535;28;20546;-71
2021/11/08 05:27:55;;;;;;;22.00;4.60;;;;;;;;;;5020532;28;20290;-71
2021/11/08 05:30:21;;;;;;;22.07;3.83;;;;;;;;;;5011318;28;20232;-71
2021/11/08 05:32:49;;;;;;;21.47;4.13;;;;;;;;;;5020712;28;20185;-71
2021/11/08 05:35:16;;;;;;;22.07;4.83;;;;;;;;;;5011717;28;20236;-71
2021/11/08 05:37:43;;;;;;;26.10;4.40;;;;;;;;;;5019494;28;20202;-71
2021/11/08 05:40:17;;;;;;;30.07;4.67;;;;;;;;;;5010453;28;20194;-71
2021/11/08 05:42:43;;;;;;;22.93;4.03;;;;;;;;;;5017774;28;21460;-71
2021/11/08 05:45:12;;;;;;;23.00;5.03;;;;;;;;;;5009451;28;20186;-71
2021/11/08 05:47:38;;;;;;;30.80;4.90;;;;;;;;;;5020326;28;20192;-71
2021/11/08 05:50:05;;;;;;;28.20;5.13;;;;;;;;;;5009593;28;20222;-71
2021/11/08 05:52:31;;;;;;;24.63;4.73;;;;;;;;;;5017601;28;20560;-71
2021/11/08 05:54:56;;;;;;;23.20;4.63;;;;;;;;;;5011850;28;20194;-71
2021/11/08 05:57:41;;;;;;;23.17;4.20;;;;;;;;;;5017549;28;20214;-71
2021/11/08 06:49:47;;;;;;;26.97;5.10;;;;;;;;;;4972119;28;20207;-70
2021/11/08 06:52:16;;;;;;;28.70;6.07;;;;;;;;;;4975797;28;20207;-71
2021/11/08 06:54:44;;;;;;;35.30;6.57;;;;;;;;;;4990516;28;20216;-71
2021/11/08 06:57:13;;;;;;;33.97;6.73;;;;;;;;;;5019177;28;20228;-71
2021/11/08 06:59:44;;;;;;;44.10;7.63;;;;;;;;;;5002620;28;20560;-71
2021/11/08 07:02:11;;;;;;;28.77;7.20;;;;;;;;;;5018347;28;20217;-71
2021/11/08 07:04:37;;;;;;;32.40;6.73;;;;;;;;;;5010345;28;20300;-70
2021/11/08 07:07:05;;;;;;;26.13;7.40;;;;;;;;;;5017351;28;20220;-71
2021/11/08 07:09:31;;;;;;;28.20;7.53;;;;;;;;;;5011571;28;20190;-71
2021/11/08 07:11:56;;;;;;;28.10;7.60;;;;;;;;;;5020373;28;20719;-71
2021/11/08 07:14:22;;;;;;;33.53;7.90;;;;;;;;;;5007445;28;20300;-70
2021/11/08 07:16:47;;;;;;;32.63;8.10;;;;;;;;;;5017306;28;20695;-71
2021/11/08 07:19:14;;;;;;;29.43;8.43;;;;;;;;;;5012660;28;20182;-71
2021/11/08 07:21:40;;;;;;;33.53;8.40;;;;;;;;;;5020127;28;20198;-71
2021/11/08 07:24:06;;;;;;;27.17;7.70;;;;;;;;;;5012905;28;20332;-70
2021/11/08 07:26:31;;;;;;;35.23;7.70;;;;;;;;;;5008025;28;20185;-70
2021/11/08 07:28:56;;;;;;;29.30;7.83;;;;;;;;;;5019227;28;20650;-70
2021/11/08 07:31:22;;;;;;;36.60;9.17;;;;;;;;;;5007287;28;20861;-71
2021/11/08 07:33:48;;;;;;;30.47;8.77;;;;;;;;;;5019026;28;20186;-70
2021/11/08 07:36:14;;;;;;;25.03;8.13;;;;;;;;;;5008880;28;20664;-70
2021/11/08 07:38:39;;;;;;;33.43;8.90;;;;;;;;;;5018270;28;20218;-70
2021/11/08 07:41:07;;;;;;;33.77;8.47;;;;;;;;;;5010471;28;20205;-71
2021/11/08 07:43:34;;;;;;;33.90;8.60;;;;;;;;;;5017686;28;20197;-71
2021/11/08 07:45:59;;;;;;;32.60;8.67;;;;;;;;;;5006696;28;20194;-71
2021/11/08 07:48:24;;;;;;;41.53;10.23;;;;;;;;;;5019665;28;20198;-70
2021/11/08 07:50:50;;;;;;;33.83;9.37;;;;;;;;;;5010930;28;20209;-71
2021/11/08 07:53:17;;;;;;;28.40;9.07;;;;;;;;;;5016440;28;20273;-71
2021/11/08 07:55:43;;;;;;;27.90;9.10;;;;;;;;;;5018924;28;20625;-71
2021/11/08 07:58:09;;;;;;;34.03;9.00;;;;;;;;;;5012051;28;21438;-71
2021/11/08 08:00:36;;;;;;;29.33;8.87;;;;;;;;;;5019807;28;20493;-71
2021/11/08 08:03:03;;;;;;;42.80;9.70;;;;;;;;;;5011663;28;20182;-71
2021/11/08 08:05:28;;;;;;;34.50;9.77;;;;;;;;;;5020411;28;20182;-71
2021/11/08 08:07:54;;;;;;;26.07;8.53;;;;;;;;;;5019815;28;20193;-71
2021/11/08 08:10:19;;;;;;;23.40;8.17;;;;;;;;;;5021549;28;20552;-71
2021/11/08 08:12:44;;;;;;;28.53;8.40;;;;;;;;;;5012158;28;20245;-71
2021/11/08 08:15:10;;;;;;;28.23;7.93;;;;;;;;;;5020029;28;20619;-71
2021/11/08 08:17:37;;;;;;;29.57;8.33;;;;;;;;;;5010790;28;20404;-71
2021/11/08 08:20:13;;;;;;;23.27;8.00;;;;;;;;;;5021068;28;20266;-71
2021/11/08 08:22:38;;;;;;;26.83;8.40;;;;;;;;;;5010714;28;20193;-71
2021/11/08 08:25:04;;;;;;;27.73;7.63;;;;;;;;;;5021467;28;20526;-71
2021/11/08 08:27:29;;;;;;;26.40;7.47;;;;;;;;;;5020467;28;20689;-71
2021/11/08 08:29:55;;;;;;;26.23;7.60;;;;;;;;;;5006894;28;20261;-71
2021/11/08 08:32:20;;;;;;;26.53;7.23;;;;;;;;;;5017345;28;20662;-71
2021/11/08 08:34:46;;;;;;;21.13;6.93;;;;;;;;;;5009124;28;20224;-71
2021/11/08 08:37:11;;;;;;;20.30;6.87;;;;;;;;;;5017441;28;20487;-71
2021/11/08 08:39:37;;;;;;;25.43;7.13;;;;;;;;;;5011956;28;20198;-71
2021/11/08 08:42:03;;;;;;;23.20;7.33;;;;;;;;;;5017827;28;20197;-71
2021/11/08 08:44:29;;;;;;;27.20;7.53;;;;;;;;;;5020677;28;20202;-71
2021/11/08 08:46:54;;;;;;;21.17;6.00;;;;;;;;;;5019504;28;20256;-71
2021/11/08 08:49:22;;;;;;;26.73;7.03;;;;;;;;;;5011674;28;20612;-71
2021/11/08 08:51:48;;;;;;;21.30;6.60;;;;;;;;;;5018963;28;21290;-71
2021/11/08 08:54:13;;;;;;;28.73;7.07;;;;;;;;;;5010817;28;20261;-71
2021/11/08 08:56:39;;;;;;;20.00;6.40;;;;;;;;;;5019528;28;20228;-71
2021/11/08 08:59:05;;;;;;;23.57;6.70;;;;;;;;;;5008968;28;20721;-70
2021/11/08 09:01:30;;;;;;;21.07;6.77;;;;;;;;;;5011347;28;20190;-70
2021/11/08 09:03:56;;;;;;;21.33;6.30;;;;;;;;;;5017128;28;20805;-71
2021/11/08 09:06:23;;;;;;;24.60;7.03;;;;;;;;;;5010335;28;20225;-70
2021/11/08 09:08:49;;;;;;;16.00;5.77;;;;;;;;;;5015743;28;20232;-71
2021/11/08 09:11:15;;;;;;;22.83;5.70;;;;;;;;;;5004372;28;20226;-71
2021/11/08 09:13:41;;;;;;;17.73;5.77;;;;;;;;;;5016144;28;20259;-72
2021/11/08 09:16:11;;;;;;;26.60;6.20;;;;;;;;;;5009045;28;20190;-71
2021/11/08 09:18:51;;;;;;;18.00;6.10;;;;;;;;;;5018867;28;20661;-71
2021/11/08 09:21:18;;;;;;;15.57;4.73;;;;;;;;;;5012345;28;20224;-71
2021/11/08 09:23:45;;;;;;;19.43;5.43;;;;;;;;;;5017309;28;20196;-71
2021/11/08 09:26:12;;;;;;;20.87;5.17;;;;;;;;;;5010919;28;20645;-71
2021/11/08 09:28:38;;;;;;;19.13;5.47;;;;;;;;;;5019653;28;20210;-71
2021/11/08 09:31:03;;;;;;;19.93;5.67;;;;;;;;;;5009099;28;20528;-71
2021/11/08 09:33:30;;;;;;;17.43;5.13;;;;;;;;;;5019397;28;20240;-71
2021/11/08 09:36:02;;;;;;;17.60;4.80;;;;;;;;;;5020982;28;20189;-72
2021/11/08 09:38:28;;;;;;;18.83;5.50;;;;;;;;;;5018019;28;20252;-71
2021/11/08 09:40:54;;;;;;;20.93;5.03;;;;;;;;;;5019704;28;20669;-71
2021/11/08 09:43:23;;;;;;;18.67;5.17;;;;;;;;;;5011398;28;20228;-71
2021/11/08 09:45:49;;;;;;;15.80;4.87;;;;;;;;;;5020311;28;20193;-71
2021/11/08 09:48:16;;;;;;;20.20;4.60;;;;;;;;;;5010108;28;20309;-71
2021/11/08 09:50:44;;;;;;;16.87;4.63;;;;;;;;;;5020170;28;20679;-71
2021/11/08 09:53:11;;;;;;;22.30;4.37;;;;;;;;;;5010644;28;20185;-71
2021/11/08 09:55:36;;;;;;;18.77;4.20;;;;;;;;;;5021155;28;20252;-71
2021/11/08 09:58:03;;;;;;;17.63;3.90;;;;;;;;;;5011713;28;20218;-71
2021/11/08 10:00:35;;;;;;;17.25;4.32;;;;;;;;;;5019432;28;21928;-71
2021/11/08 10:03:03;;;;;;;15.82;3.45;;;;;;;;;;5011295;28;20189;-71
2021/11/08 10:05:32;;;;;;;15.00;3.88;;;;;;;;;;5017116;28;20697;-71
2021/11/08 10:07:59;;;;;;;18.77;4.05;;;;;;;;;;5011839;28;20265;-71
2021/11/08 10:10:28;;;;;;;16.70;4.20;;;;;;;;;;5020715;28;20194;-72
2021/11/08 10:13:12;;;;;;;19.52;4.68;;;;;;;;;;5011713;28;20198;-71
2021/11/08 10:15:42;;;;;;;17.73;4.15;;;;;;;;;;5017544;28;20198;-71
2021/11/08 10:18:08;;;;;;;18.73;3.83;;;;;;;;;;5013660;28;20213;-70
2021/11/08 10:20:43;;;;;;;18.92;3.83;;;;;;;;;;5017497;28;20197;-70
2021/11/08 10:23:11;;;;;;;20.45;3.90;;;;;;;;;;5018473;28;20189;-70
2021/11/08 10:25:38;;;;;;;17.67;4.07;;;;;;;;;;5010995;28;20197;-71
2021/11/08 10:28:09;;;;;;;15.07;3.55;;;;;;;;;;5019381;28;20201;-70
2021/11/08 10:30:36;;;;;;;21.23;4.57;;;;;;;;;;5010268;28;20202;-70
2021/11/08 10:33:08;;;;;;;16.77;3.70;;;;;;;;;;5015799;28;20226;-70
2021/11/08 10:35:49;;;;;;;17.73;3.20;;;;;;;;;;5009880;28;20222;-71
2021/11/08 10:38:19;;;;;;;15.02;3.67;;;;;;;;;;5017984;28;20241;-70
2021/11/08 10:40:51;;;;;;;17.63;3.92;;;;;;;;;;5011824;28;20210;-71
2021/11/08 10:43:28;;;;;;;11.77;3.05;;;;;;;;;;5020655;28;20185;-71
2021/11/08 10:45:57;;;;;;;13.75;3.33;;;;;;;;;;5010849;28;20198;-71
2021/11/08 10:48:28;;;;;;;16.40;4.10;;;;;;;;;;5018057;28;20240;-71
2021/11/08 10:50:54;;;;;;;13.63;3.05;;;;;;;;;;5009744;28;20223;-71
2021/11/08 10:53:21;;;;;;;13.35;3.50;;;;;;;;;;5018763;28;20529;-71
2021/11/08 10:55:52;;;;;;;13.57;3.60;;;;;;;;;;5014735;28;20198;-71
2021/11/08 10:58:20;;;;;;;16.60;3.72;;;;;;;;;;5019896;28;20260;-71
2021/11/08 11:00:50;;;;;;;19.75;3.83;;;;;;;;;;5012743;28;20303;-73
2021/11/08 11:03:17;;;;;;;15.07;3.45;;;;;;;;;;5022624;28;20205;-71
2021/11/08 11:05:43;;;;;;;17.38;3.28;;;;;;;;;;5016097;28;20462;-71
2021/11/08 11:08:15;;;;;;;15.73;3.58;;;;;;;;;;5019056;28;20174;-73
2021/11/08 11:10:51;;;;;;;14.95;4.13;;;;;;;;;;5021252;28;20190;-73
2021/11/08 11:13:20;;;;;;;14.00;3.10;;;;;;;;;;5023070;28;20252;-72
2021/11/08 11:15:46;;;;;;;13.02;2.97;;;;;;;;;;5020195;28;20305;-72
2021/11/08 11:18:12;;;;;;;15.88;3.47;;;;;;;;;;5011148;28;20832;-72
2021/11/08 11:20:40;;;;;;;15.68;3.08;;;;;;;;;;5021878;28;20224;-71
2021/11/08 11:23:26;;;;;;;17.42;3.40;;;;;;;;;;5011824;28;20543;-71
2021/11/08 11:26:01;;;;;;;12.95;3.08;;;;;;;;;;5020024;28;20194;-71
2021/11/08 11:28:35;;;;;;;18.25;3.30;;;;;;;;;;5011649;28;20427;-72
2021/11/08 11:31:11;;;;;;;14.25;2.85;;;;;;;;;;5021119;28;20186;-72
2021/11/08 11:33:36;;;;;;;14.13;2.75;;;;;;;;;;5008798;28;20255;-71
2021/11/08 11:36:11;;;;;;;12.95;2.45;;;;;;;;;;5021384;28;20483;-71
2021/11/08 11:38:51;;;;;;;21.30;2.78;;;;;;;;;;5014018;28;20962;-72
2021/11/08 11:41:19;;;;;;;15.10;2.53;;;;;;;;;;5021406;28;20193;-74
2021/11/08 11:43:52;;;;;;;14.13;2.53;;;;;;;;;;5014916;28;20198;-71
2021/11/08 11:46:26;;;;;;;9.93;2.13;;;;;;;;;;5021353;28;20637;-72
2021/11/08 11:48:52;;;;;;;13.77;2.60;;;;;;;;;;5010245;28;20263;-70
2021/11/08 11:51:21;;;;;;;20.55;2.95;;;;;;;;;;5025348;28;20282;-71
2021/11/08 11:53:47;;;;;;;10.35;2.63;;;;;;;;;;5010243;28;20194;-71
2021/11/08 11:56:19;;;;;;;11.68;3.25;;;;;;;;;;5023454;28;20209;-73
2021/11/08 11:58:45;;;;;;;13.23;2.50;;;;;;;;;;5013239;28;20217;-71
2021/11/08 12:01:12;;;;;;;17.50;3.25;;;;;;;;;;5021567;28;20228;-71
2021/11/08 12:03:39;;;;;;;16.23;3.47;;;;;;;;;;5019138;28;20270;-72
2021/11/08 12:06:05;;;;;;;15.40;2.60;;;;;;;;;;5011503;28;20676;-72
2021/11/08 12:08:35;;;;;;;14.65;2.40;;;;;;;;;;5018285;28;20650;-70
2021/11/08 12:11:03;;;;;;;18.90;2.90;;;;;;;;;;5010776;28;20256;-72
2021/11/08 12:13:29;;;;;;;19.08;3.20;;;;;;;;;;5019561;28;21007;-71
2021/11/08 12:15:58;;;;;;;14.27;2.58;;;;;;;;;;5008907;28;20198;-71
2021/11/08 12:18:23;;;;;;;19.75;3.42;;;;;;;;;;5020462;28;20210;-71
2021/11/08 12:20:56;;;;;;;15.90;2.60;;;;;;;;;;5006690;28;20198;-71
2021/11/08 12:23:36;;;;;;;16.33;2.53;;;;;;;;;;5018671;28;20182;-71
2021/11/08 12:26:01;;;;;;;18.80;2.45;;;;;;;;;;5011642;28;20263;-71
2021/11/08 12:28:29;;;;;;;11.73;2.40;;;;;;;;;;5017161;28;20225;-71
2021/11/08 12:31:01;;;;;;;12.68;2.33;;;;;;;;;;5007934;28;20198;-71
2021/11/08 12:33:30;;;;;;;19.50;2.90;;;;;;;;;;5018501;28;20193;-70
2021/11/08 12:36:00;;;;;;;12.88;2.03;;;;;;;;;;5009218;28;20312;-70
2021/11/08 12:38:33;;;;;;;12.25;2.25;;;;;;;;;;5017366;28;20304;-70
2021/11/08 12:41:25;;;;;;;16.67;2.50;;;;;;;;;;5008554;28;20186;-71
2021/11/08 12:43:56;;;;;;;16.00;2.35;;;;;;;;;;5022323;28;20250;-71
2021/11/08 12:46:26;;;;;;;21.42;2.78;;;;;;;;;;5011072;28;20194;-71
2021/11/08 12:49:03;;;;;;;13.07;2.05;;;;;;;;;;5014927;28;20174;-70
2021/11/08 12:51:29;;;;;;;12.30;2.80;;;;;;;;;;5011777;28;20193;-71
2021/11/08 12:54:05;;;;;;;11.88;2.15;;;;;;;;;;5019084;28;20201;-70
2021/11/08 12:56:37;;;;;;;14.88;1.95;;;;;;;;;;5018768;28;20213;-71
2021/11/08 12:59:24;;;;;;;6.10;1.63;;;;;;;;;;5016607;28;20724;-71
2021/11/08 13:02:08;;;;;;;16.38;1.77;;;;;;;;;;5020247;28;20202;-71
2021/11/08 13:04:46;;;;;;;8.07;1.00;;;;;;;;;;5020039;28;20194;-70
2021/11/08 13:07:13;;;;;;;9.43;1.40;;;;;;;;;;5010988;28;20183;-71
2021/11/08 13:09:45;;;;;;;7.88;2.13;;;;;;;;;;5014828;28;20320;-71
2021/11/08 13:12:14;;;;;;;12.60;1.80;;;;;;;;;;5016118;28;20241;-71
2021/11/08 13:14:40;;;;;;;10.85;1.60;;;;;;;;;;5012165;28;20182;-71
2021/11/08 13:17:18;;;;;;;9.15;1.60;;;;;;;;;;5018576;28;20521;-71
2021/11/08 13:20:01;;;;;;;16.25;1.63;;;;;;;;;;5012632;28;20259;-71
2021/11/08 13:22:33;;;;;;;6.97;1.60;;;;;;;;;;5018070;28;20187;-71
2021/11/08 13:25:07;;;;;;;9.48;1.90;;;;;;;;;;5010108;28;20654;-71
2021/11/08 13:27:33;;;;;;;9.90;1.27;;;;;;;;;;5018691;28;20231;-70
2021/11/08 13:30:04;;;;;;;10.70;2.10;;;;;;;;;;5011762;28;20190;-71
2021/11/08 13:32:31;;;;;;;10.88;1.50;;;;;;;;;;5017539;28;20224;-71
2021/11/08 13:35:11;;;;;;;11.50;1.95;;;;;;;;;;5013101;28;20205;-71
2021/11/08 13:37:38;;;;;;;13.13;1.90;;;;;;;;;;5020588;28;20206;-71
2021/11/08 13:40:41;;;;;;;15.75;2.08;;;;;;;;;;5010346;28;20240;-71
2021/11/08 13:43:14;;;;;;;11.93;1.98;;;;;;;;;;4996477;28;20250;-71
2021/11/08 13:45:45;;;;;;;14.40;1.65;;;;;;;;;;5008840;28;20251;-71
2021/11/08 13:48:28;;;;;;;15.95;2.13;;;;;;;;;;5020357;28;20228;-71
2021/11/08 13:50:56;;;;;;;11.05;1.73;;;;;;;;;;5009671;28;20540;-71
2021/11/08 13:53:25;;;;;;;11.05;2.00;;;;;;;;;;5020115;28;20202;-71
2021/11/08 13:55:54;;;;;;;15.30;2.33;;;;;;;;;;5008213;28;20256;-71
2021/11/08 13:58:20;;;;;;;14.18;1.90;;;;;;;;;;5014002;28;20309;-71
2021/11/08 14:00:46;;;;;;;19.98;2.45;;;;;;;;;;5008743;28;20284;-71
2021/11/08 14:03:16;;;;;;;14.05;1.88;;;;;;;;;;5017896;28;20208;-71
2021/11/08 14:05:52;;;;;;;11.27;1.80;;;;;;;;;;5010787;28;20178;-71
2021/11/08 14:08:23;;;;;;;15.35;1.83;;;;;;;;;;5017676;28;20194;-71
2021/11/08 14:10:57;;;;;;;16.42;2.13;;;;;;;;;;5009401;28;20636;-71
2021/11/08 14:13:36;;;;;;;14.27;1.98;;;;;;;;;;5016167;28;20281;-71
2021/11/08 14:16:05;;;;;;;13.95;2.33;;;;;;;;;;5010794;28;20189;-71
2021/11/08 14:18:31;;;;;;;9.93;1.75;;;;;;;;;;5017688;28;20292;-72
2021/11/08 14:21:23;;;;;;;12.43;1.77;;;;;;;;;;5016884;28;20784;-71
2021/11/08 14:24:05;;;;;;;16.70;2.13;;;;;;;;;;5013516;28;20267;-71
2021/11/08 14:26:32;;;;;;;11.68;2.25;;;;;;;;;;5002981;28;20210;-71
2021/11/08 14:28:58;;;;;;;17.05;2.10;;;;;;;;;;5018368;28;20683;-71
2021/11/08 14:31:25;;;;;;;14.80;2.92;;;;;;;;;;5021336;28;20332;-72
2021/11/08 14:33:54;;;;;;;14.00;2.22;;;;;;;;;;5010027;28;20280;-71
2021/11/08 14:36:23;;;;;;;7.88;1.45;;;;;;;;;;5020064;28;20605;-71
2021/11/08 14:38:57;;;;;;;12.13;2.35;;;;;;;;;;5012631;28;20206;-71
2021/11/08 14:41:23;;;;;;;12.93;1.83;;;;;;;;;;5024252;28;20193;-71
2021/11/08 14:44:09;;;;;;;13.98;1.77;;;;;;;;;;5014354;28;20190;-71
2021/11/08 14:46:44;;;;;;;7.80;1.73;;;;;;;;;;5021519;28;20240;-72
2021/11/08 14:49:13;;;;;;;13.90;2.20;;;;;;;;;;5012337;28;20200;-72
2021/11/08 14:51:39;;;;;;;15.63;1.95;;;;;;;;;;5018774;28;20549;-72
2021/11/08 14:54:06;;;;;;;15.90;2.55;;;;;;;;;;5014121;28;20285;-72
2021/11/08 14:56:39;;;;;;;10.77;1.90;;;;;;;;;;5021163;28;20523;-72
2021/11/08 14:59:07;;;;;;;12.45;2.00;;;;;;;;;;5012020;28;20699;-71
2021/11/08 15:01:35;;;;;;;13.82;2.00;;;;;;;;;;5020832;28;20185;-71
2021/11/08 15:04:17;;;;;;;11.27;2.35;;;;;;;;;;5011789;28;20197;-72
2021/11/08 15:07:01;;;;;;;12.65;2.33;;;;;;;;;;5022616;28;20842;-71
2021/11/08 15:09:50;;;;;;;16.38;2.05;;;;;;;;;;5013959;28;20190;-71
2021/11/08 15:12:17;;;;;;;9.02;1.80;;;;;;;;;;5021887;28;20249;-71
2021/11/08 15:15:00;;;;;;;16.05;1.98;;;;;;;;;;5008930;28;20183;-71
2021/11/08 15:17:38;;;;;;;16.35;1.67;;;;;;;;;;5019987;28;20197;-72
2021/11/08 15:20:17;;;;;;;6.93;1.58;;;;;;;;;;5009856;28;20232;-72
2021/11/08 15:22:47;;;;;;;10.20;1.92;;;;;;;;;;5020052;28;20266;-72
2021/11/08 15:25:19;;;;;;;11.25;1.95;;;;;;;;;;5010984;28;20669;-71
2021/11/08 15:27:45;;;;;;;8.23;2.03;;;;;;;;;;5020390;28;20182;-71
2021/11/08 15:30:12;;;;;;;14.35;2.33;;;;;;;;;;5011110;28;20530;-71
2021/11/08 15:32:37;;;;;;;10.95;2.00;;;;;;;;;;5020481;28;20557;-72
2021/11/08 15:35:11;;;;;;;14.35;2.30;;;;;;;;;;5012226;28;20190;-72
2021/11/08 15:37:50;;;;;;;13.68;2.15;;;;;;;;;;5021887;28;20213;-72
2021/11/08 15:40:16;;;;;;;11.18;1.83;;;;;;;;;;5013472;28;20586;-72
2021/11/08 15:42:42;;;;;;;9.73;2.10;;;;;;;;;;5017900;28;20284;-72
2021/11/08 15:45:07;;;;;;;14.88;1.80;;;;;;;;;;5022799;28;20190;-71
2021/11/08 15:47:32;;;;;;;10.65;1.73;;;;;;;;;;5010480;28;20204;-72
2021/11/08 15:49:58;;;;;;;11.57;1.95;;;;;;;;;;5021333;28;20187;-72
2021/11/08 15:52:25;;;;;;;8.52;1.98;;;;;;;;;;5010488;28;20189;-72
2021/11/08 15:54:51;;;;;;;13.57;2.45;;;;;;;;;;5020556;28;20213;-72
2021/11/08 15:57:16;;;;;;;10.30;2.22;;;;;;;;;;5010027;28;20285;-72
2021/11/08 15:59:43;;;;;;;13.93;2.30;;;;;;;;;;5021133;28;20249;-72
2021/11/08 16:02:08;;;;;;;10.85;1.90;;;;;;;;;;5009464;28;20214;-71
2021/11/08 16:04:34;;;;;;;12.23;2.05;;;;;;;;;;5018144;28;20609;-71
2021/11/08 16:06:59;;;;;;;9.15;2.05;;;;;;;;;;5013301;28;20198;-71
2021/11/08 16:09:25;;;;;;;9.30;1.60;;;;;;;;;;5020999;28;20265;-72
2021/11/08 16:11:50;;;;;;;13.23;2.22;;;;;;;;;;5016484;28;20229;-72
2021/11/08 16:14:15;;;;;;;16.08;2.28;;;;;;;;;;5017063;28;20328;-71
2021/11/08 16:16:42;;;;;;;12.50;2.35;;;;;;;;;;5019615;28;20316;-71